Time;durP1;ratioP1;P1;durP2;ratioP2;P2;SDS_P1;SDS_P2;PMS_P1;PMS_P2;Temp;Humidity;BMP_temperature;BMP_pressure;BME280_temperature;BME280_humidity;BME280_pressure;Samples;Min_cycle;Max_cycle;Signal;HPM_P1;HPM_P2
2021/07/31 00:01:00;;;;;;;3.97;2.42;;;;;;;;;;3584269;40;20051;-64
2021/07/31 00:03:25;;;;;;;4.72;2.10;;;;;;;;;;3585311;40;20737;-64
2021/07/31 00:05:51;;;;;;;5.63;2.90;;;;;;;;;;3585135;40;20079;-64
2021/07/31 00:08:16;;;;;;;4.35;2.55;;;;;;;;;;3585795;40;20076;-64
2021/07/31 00:10:41;;;;;;;3.78;2.75;;;;;;;;;;3586353;40;20055;-64
2021/07/31 00:13:07;;;;;;;6.85;4.03;;;;;;;;;;3585688;40;20111;-64
2021/07/31 00:15:32;;;;;;;4.10;2.70;;;;;;;;;;3584650;40;20044;-64
2021/07/31 00:17:57;;;;;;;4.65;3.28;;;;;;;;;;3585623;40;20064;-64
2021/07/31 00:20:23;;;;;;;5.32;3.33;;;;;;;;;;3585120;40;20048;-64
2021/07/31 00:22:48;;;;;;;4.40;3.03;;;;;;;;;;3585318;40;20053;-64
2021/07/31 00:25:14;;;;;;;8.00;3.75;;;;;;;;;;3585973;40;20041;-65
2021/07/31 00:27:39;;;;;;;4.57;3.15;;;;;;;;;;3585734;40;20029;-64
2021/07/31 00:30:05;;;;;;;4.32;3.22;;;;;;;;;;3586356;40;20029;-64
2021/07/31 00:32:30;;;;;;;5.90;3.00;;;;;;;;;;3585821;40;20031;-64
2021/07/31 00:34:56;;;;;;;4.47;3.47;;;;;;;;;;3585183;40;20107;-64
2021/07/31 00:37:21;;;;;;;6.75;3.08;;;;;;;;;;3585404;40;20276;-64
2021/07/31 00:39:46;;;;;;;5.10;3.35;;;;;;;;;;3585279;40;20033;-64
2021/07/31 00:42:12;;;;;;;4.43;2.90;;;;;;;;;;3585716;40;20534;-64
2021/07/31 00:44:38;;;;;;;3.90;2.55;;;;;;;;;;3585376;40;20051;-64
2021/07/31 00:47:04;;;;;;;7.35;2.70;;;;;;;;;;3585424;40;20045;-64
2021/07/31 00:49:30;;;;;;;3.85;2.42;;;;;;;;;;3584215;40;20374;-64
2021/07/31 00:51:56;;;;;;;4.43;2.70;;;;;;;;;;3582238;40;20072;-65
2021/07/31 00:54:22;;;;;;;4.22;2.50;;;;;;;;;;3584611;40;20365;-64
2021/07/31 00:56:48;;;;;;;4.38;2.38;;;;;;;;;;3585355;40;20427;-65
2021/07/31 00:59:14;;;;;;;8.73;2.50;;;;;;;;;;3585422;40;20360;-64
2021/07/31 01:01:40;;;;;;;5.25;2.75;;;;;;;;;;3587199;40;20159;-64
2021/07/31 01:04:06;;;;;;;4.03;2.53;;;;;;;;;;3587544;40;20028;-65
2021/07/31 01:06:31;;;;;;;4.43;2.17;;;;;;;;;;3587887;40;20029;-65
2021/07/31 01:08:57;;;;;;;4.80;2.40;;;;;;;;;;3587762;40;20028;-65
2021/07/31 01:11:22;;;;;;;6.55;2.08;;;;;;;;;;3586645;40;20036;-64
2021/07/31 01:13:49;;;;;;;6.20;2.65;;;;;;;;;;3587611;40;20063;-64
2021/07/31 01:16:14;;;;;;;3.33;2.10;;;;;;;;;;3586580;40;20076;-66
2021/07/31 01:18:41;;;;;;;3.10;2.08;;;;;;;;;;3577996;40;20032;-65
2021/07/31 01:21:06;;;;;;;3.88;2.00;;;;;;;;;;3587071;40;20109;-65
2021/07/31 01:23:32;;;;;;;4.25;2.42;;;;;;;;;;3587002;40;20346;-65
2021/07/31 01:25:57;;;;;;;4.65;2.30;;;;;;;;;;3587298;40;20044;-65
2021/07/31 01:28:24;;;;;;;4.30;2.50;;;;;;;;;;3586932;40;20032;-64
2021/07/31 01:30:49;;;;;;;4.55;2.00;;;;;;;;;;3587140;40;20072;-64
2021/07/31 01:33:15;;;;;;;5.13;2.03;;;;;;;;;;3586473;40;20024;-64
2021/07/31 01:35:40;;;;;;;5.05;1.85;;;;;;;;;;3586284;40;20035;-65
2021/07/31 01:38:06;;;;;;;4.53;2.15;;;;;;;;;;3587129;40;20452;-65
2021/07/31 01:40:31;;;;;;;3.38;1.90;;;;;;;;;;3586585;40;20102;-65
2021/07/31 01:42:57;;;;;;;3.30;2.00;;;;;;;;;;3583970;40;20090;-65
2021/07/31 01:45:26;;;;;;;4.15;2.22;;;;;;;;;;3587177;40;20126;-64
2021/07/31 01:47:52;;;;;;;6.75;2.05;;;;;;;;;;3587552;40;20032;-65
2021/07/31 01:50:19;;;;;;;5.50;2.20;;;;;;;;;;3587347;40;20161;-65
2021/07/31 01:52:45;;;;;;;4.25;2.30;;;;;;;;;;3586475;40;20372;-65
2021/07/31 01:55:11;;;;;;;7.55;2.28;;;;;;;;;;3586142;40;20134;-64
2021/07/31 01:57:37;;;;;;;4.10;2.53;;;;;;;;;;3585752;40;20052;-65
2021/07/31 02:00:04;;;;;;;5.70;2.53;;;;;;;;;;3587243;40;20072;-64
2021/07/31 02:02:29;;;;;;;4.47;2.28;;;;;;;;;;3586172;40;20576;-64
2021/07/31 02:04:55;;;;;;;4.72;2.50;;;;;;;;;;3586042;40;20040;-64
2021/07/31 02:07:20;;;;;;;3.88;1.90;;;;;;;;;;3582936;40;20028;-65
2021/07/31 02:09:46;;;;;;;4.45;2.33;;;;;;;;;;3586697;40;20048;-65
2021/07/31 02:12:11;;;;;;;5.70;2.50;;;;;;;;;;3586940;40;20129;-65
2021/07/31 02:14:36;;;;;;;5.57;2.20;;;;;;;;;;3586717;40;20384;-67
2021/07/31 02:17:02;;;;;;;6.55;2.85;;;;;;;;;;3586313;40;20029;-68
2021/07/31 02:19:30;;;;;;;4.93;2.53;;;;;;;;;;3587030;40;20036;-69
2021/07/31 02:21:56;;;;;;;3.30;2.00;;;;;;;;;;3586381;40;20044;-68
2021/07/31 02:24:22;;;;;;;5.88;2.03;;;;;;;;;;3586107;40;20044;-69
2021/07/31 02:26:47;;;;;;;3.85;1.92;;;;;;;;;;3587092;40;20048;-68
2021/07/31 02:29:13;;;;;;;3.72;1.70;;;;;;;;;;3589236;40;20045;-68
2021/07/31 02:31:38;;;;;;;4.43;2.10;;;;;;;;;;3586887;40;20471;-68
2021/07/31 02:34:04;;;;;;;3.80;2.17;;;;;;;;;;3584645;40;20032;-67
2021/07/31 02:36:29;;;;;;;4.97;2.00;;;;;;;;;;3586765;40;20138;-67
2021/07/31 02:38:54;;;;;;;4.78;2.22;;;;;;;;;;3584951;40;20121;-67
2021/07/31 02:41:20;;;;;;;3.75;2.05;;;;;;;;;;3585406;40;20040;-66
2021/07/31 02:43:45;;;;;;;3.67;1.88;;;;;;;;;;3586761;40;20040;-66
2021/07/31 02:46:11;;;;;;;3.95;1.90;;;;;;;;;;3586369;40;20271;-67
2021/07/31 02:48:37;;;;;;;5.45;2.83;;;;;;;;;;3582215;40;20137;-66
2021/07/31 02:51:08;;;;;;;5.70;2.88;;;;;;;;;;3585599;40;20044;-66
2021/07/31 02:53:34;;;;;;;;;;;;;;;;;;3585959;40;20037;-67
2021/07/31 02:55:59;;;;;;;3.45;1.77;;;;;;;;;;3586694;40;20002;-66
2021/07/31 02:58:25;;;;;;;7.18;1.70;;;;;;;;;;3585940;40;20069;-67
2021/07/31 03:00:50;;;;;;;3.67;1.98;;;;;;;;;;3585744;40;20036;-67
2021/07/31 03:03:15;;;;;;;6.40;2.65;;;;;;;;;;3586827;40;20033;-67
2021/07/31 03:05:41;;;;;;;4.05;1.75;;;;;;;;;;3586505;40;20045;-66
2021/07/31 03:08:06;;;;;;;5.50;4.97;;;;;;;;;;3582620;40;20064;-66
2021/07/31 03:10:31;;;;;;;7.88;2.83;;;;;;;;;;3586101;40;20033;-66
2021/07/31 03:12:57;;;;;;;3.58;1.77;;;;;;;;;;3586510;40;20062;-67
2021/07/31 03:15:23;;;;;;;5.72;4.75;;;;;;;;;;3585761;40;20515;-66
2021/07/31 03:17:48;;;;;;;8.75;2.88;;;;;;;;;;3586584;40;20368;-66
2021/07/31 03:20:14;;;;;;;5.22;4.53;;;;;;;;;;3586502;40;20040;-66
2021/07/31 03:22:39;;;;;;;4.95;3.17;;;;;;;;;;3586071;40;20028;-66
2021/07/31 03:25:05;;;;;;;4.22;3.22;;;;;;;;;;3585928;40;20037;-66
2021/07/31 03:27:30;;;;;;;5.80;4.10;;;;;;;;;;3586920;40;20037;-66
2021/07/31 03:29:56;;;;;;;7.13;2.53;;;;;;;;;;3586539;40;20577;-66
2021/07/31 03:32:21;;;;;;;2.97;1.73;;;;;;;;;;3586475;40;20037;-65
2021/07/31 03:34:47;;;;;;;4.45;2.70;;;;;;;;;;3584927;40;20036;-66
2021/07/31 03:37:12;;;;;;;3.33;2.00;;;;;;;;;;3584254;40;20280;-67
2021/07/31 03:39:37;;;;;;;3.75;1.90;;;;;;;;;;3585841;40;20043;-66
2021/07/31 03:42:03;;;;;;;7.57;3.67;;;;;;;;;;3585404;40;20121;-67
2021/07/31 03:44:28;;;;;;;4.90;2.53;;;;;;;;;;3585421;40;20388;-67
2021/07/31 03:46:54;;;;;;;8.38;2.97;;;;;;;;;;3586233;40;20301;-68
2021/07/31 03:49:21;;;;;;;4.68;2.58;;;;;;;;;;3586944;40;20053;-66
2021/07/31 03:51:47;;;;;;;5.75;2.97;;;;;;;;;;3586138;40;20041;-67
2021/07/31 03:54:12;;;;;;;4.57;2.22;;;;;;;;;;3583380;40;20956;-68
2021/07/31 03:56:38;;;;;;;5.68;1.80;;;;;;;;;;3585688;40;20029;-67
2021/07/31 03:59:03;;;;;;;4.47;1.88;;;;;;;;;;3586184;40;20033;-68
2021/07/31 04:01:29;;;;;;;3.03;1.55;;;;;;;;;;3582024;40;20037;-65
2021/07/31 04:03:55;;;;;;;3.33;1.60;;;;;;;;;;3585850;40;20032;-65
2021/07/31 04:06:21;;;;;;;6.30;2.10;;;;;;;;;;3584827;40;20058;-66
2021/07/31 04:08:46;;;;;;;6.00;2.00;;;;;;;;;;3585358;40;20374;-66
2021/07/31 04:11:12;;;;;;;7.57;2.13;;;;;;;;;;3586204;40;20049;-66
2021/07/31 04:13:37;;;;;;;3.88;1.77;;;;;;;;;;3585135;40;20044;-66
2021/07/31 04:16:09;;;;;;;4.28;2.40;;;;;;;;;;3586054;40;20037;-66
2021/07/31 04:18:35;;;;;;;5.53;1.75;;;;;;;;;;3585999;40;20033;-66
2021/07/31 04:21:07;;;;;;;4.47;1.98;;;;;;;;;;3586423;40;20350;-66
2021/07/31 04:23:34;;;;;;;8.18;2.25;;;;;;;;;;3585457;40;20064;-66
2021/07/31 04:26:07;;;;;;;6.88;1.83;;;;;;;;;;3584177;40;20037;-66
2021/07/31 04:28:33;;;;;;;3.33;1.75;;;;;;;;;;3584975;40;20387;-66
2021/07/31 04:30:58;;;;;;;4.65;1.85;;;;;;;;;;3584454;40;20044;-66
2021/07/31 04:33:23;;;;;;;5.60;2.55;;;;;;;;;;3584771;40;20213;-66
2021/07/31 04:35:58;;;;;;;4.60;2.20;;;;;;;;;;3586561;40;20029;-66
2021/07/31 04:38:23;;;;;;;5.72;1.85;;;;;;;;;;3588096;40;20076;-66
2021/07/31 04:40:49;;;;;;;9.65;2.58;;;;;;;;;;3587746;40;20029;-66
2021/07/31 04:43:14;;;;;;;4.72;1.95;;;;;;;;;;3587434;40;20032;-66
2021/07/31 04:45:39;;;;;;;6.80;2.38;;;;;;;;;;3586386;40;20032;-66
2021/07/31 04:48:05;;;;;;;9.32;2.63;;;;;;;;;;3587128;40;20044;-65
2021/07/31 04:50:30;;;;;;;4.57;1.95;;;;;;;;;;3586630;40;20036;-65
2021/07/31 04:52:55;;;;;;;4.05;1.77;;;;;;;;;;3587265;40;20039;-65
2021/07/31 04:55:21;;;;;;;4.93;2.13;;;;;;;;;;3587621;40;20103;-66
2021/07/31 04:57:46;;;;;;;10.93;2.60;;;;;;;;;;3586684;40;20053;-65
2021/07/31 05:00:12;;;;;;;5.60;2.38;;;;;;;;;;3586676;40;20056;-65
2021/07/31 05:02:37;;;;;;;5.13;2.80;;;;;;;;;;3587107;40;20047;-65
2021/07/31 05:05:03;;;;;;;5.47;1.85;;;;;;;;;;3587608;40;20037;-65
2021/07/31 05:07:28;;;;;;;3.70;1.95;;;;;;;;;;3587448;40;20053;-65
2021/07/31 05:09:54;;;;;;;4.70;2.15;;;;;;;;;;3587601;40;20037;-65
2021/07/31 05:12:20;;;;;;;4.65;1.80;;;;;;;;;;3587374;40;20364;-65
2021/07/31 05:14:49;;;;;;;3.17;1.58;;;;;;;;;;3587394;40;20037;-65
2021/07/31 05:17:15;;;;;;;4.47;3.93;;;;;;;;;;3587506;40;20036;-65
2021/07/31 05:19:40;;;;;;;6.63;1.92;;;;;;;;;;3587866;40;20117;-66
2021/07/31 05:22:06;;;;;;;5.40;1.83;;;;;;;;;;3586509;40;20380;-65
2021/07/31 05:24:31;;;;;;;6.22;2.00;;;;;;;;;;3586450;40;20056;-65
2021/07/31 05:26:57;;;;;;;5.15;2.20;;;;;;;;;;3587144;40;20041;-65
2021/07/31 05:29:22;;;;;;;4.85;2.20;;;;;;;;;;3585397;40;20033;-65
2021/07/31 05:31:47;;;;;;;2.85;1.83;;;;;;;;;;3586949;40;20032;-65
2021/07/31 05:34:13;;;;;;;6.72;2.00;;;;;;;;;;3587672;40;20032;-65
2021/07/31 05:36:39;;;;;;;6.93;2.35;;;;;;;;;;3587247;40;20264;-66
2021/07/31 05:39:05;;;;;;;5.80;2.50;;;;;;;;;;3586373;40;20044;-65
2021/07/31 05:41:30;;;;;;;3.95;1.70;;;;;;;;;;3586609;40;20144;-66
2021/07/31 05:43:56;;;;;;;3.85;1.83;;;;;;;;;;3584690;40;20530;-66
2021/07/31 05:46:21;;;;;;;4.32;1.70;;;;;;;;;;3581733;40;20047;-66
2021/07/31 05:48:49;;;;;;;5.95;2.63;;;;;;;;;;3585675;40;20303;-65
2021/07/31 05:51:15;;;;;;;7.00;2.33;;;;;;;;;;3585673;40;20051;-65
2021/07/31 05:53:41;;;;;;;3.88;1.67;;;;;;;;;;3585447;40;20052;-65
2021/07/31 05:56:07;;;;;;;5.57;2.67;;;;;;;;;;3585011;40;20137;-65
2021/07/31 05:58:33;;;;;;;3.47;1.63;;;;;;;;;;3585801;40;20052;-65
2021/07/31 06:00:58;;;;;;;3.92;1.77;;;;;;;;;;3585102;40;20056;-65
2021/07/31 06:03:24;;;;;;;4.60;1.73;;;;;;;;;;3583219;40;20265;-64
2021/07/31 06:05:49;;;;;;;4.55;2.05;;;;;;;;;;3586617;40;20040;-60
2021/07/31 06:08:15;;;;;;;3.25;1.48;;;;;;;;;;3587282;40;20045;-59
2021/07/31 06:10:40;;;;;;;4.53;1.60;;;;;;;;;;3586730;40;20069;-60
2021/07/31 06:13:05;;;;;;;5.35;1.60;;;;;;;;;;3586185;40;20069;-60
2021/07/31 06:15:31;;;;;;;4.05;1.92;;;;;;;;;;3585435;40;20028;-58
2021/07/31 06:17:56;;;;;;;7.82;2.05;;;;;;;;;;3586298;40;20125;-61
2021/07/31 06:20:21;;;;;;;5.80;1.55;;;;;;;;;;3585523;40;20049;-59
2021/07/31 06:22:47;;;;;;;4.60;1.75;;;;;;;;;;3585320;40;20268;-59
2021/07/31 06:25:12;;;;;;;3.42;1.60;;;;;;;;;;3586833;40;20412;-59
2021/07/31 06:27:37;;;;;;;4.93;1.83;;;;;;;;;;3586794;40;20072;-59
2021/07/31 06:30:03;;;;;;;7.00;2.05;;;;;;;;;;3586220;40;20025;-59
2021/07/31 06:32:29;;;;;;;5.60;1.52;;;;;;;;;;3586113;40;20048;-59
2021/07/31 06:34:54;;;;;;;3.65;1.55;;;;;;;;;;3584892;40;20028;-59
2021/07/31 06:37:19;;;;;;;4.55;1.90;;;;;;;;;;3583687;40;20134;-58
2021/07/31 06:39:45;;;;;;;2.97;1.75;;;;;;;;;;3586576;40;20044;-59
2021/07/31 06:42:10;;;;;;;5.07;1.60;;;;;;;;;;3585970;40;20055;-59
2021/07/31 06:44:36;;;;;;;4.53;1.80;;;;;;;;;;3585293;40;20648;-58
2021/07/31 06:47:01;;;;;;;3.17;1.30;;;;;;;;;;3585283;40;20029;-59
2021/07/31 06:49:27;;;;;;;4.55;1.75;;;;;;;;;;3584205;40;20072;-59
2021/07/31 06:51:53;;;;;;;7.32;2.33;;;;;;;;;;3585664;40;20041;-58
2021/07/31 06:54:18;;;;;;;3.10;1.63;;;;;;;;;;3586477;40;20372;-58
2021/07/31 06:56:43;;;;;;;4.20;1.80;;;;;;;;;;3585395;40;20044;-58
2021/07/31 06:59:09;;;;;;;5.28;1.88;;;;;;;;;;3585812;40;20056;-58
2021/07/31 07:01:34;;;;;;;10.35;1.92;;;;;;;;;;3583462;40;20103;-59
2021/07/31 07:04:00;;;;;;;3.45;1.67;;;;;;;;;;3585654;40;20044;-58
2021/07/31 07:06:25;;;;;;;5.70;2.03;;;;;;;;;;3584413;40;20025;-58
2021/07/31 07:08:51;;;;;;;8.50;1.65;;;;;;;;;;3584339;40;20041;-58
2021/07/31 07:11:17;;;;;;;3.13;1.33;;;;;;;;;;3584444;40;20076;-58
2021/07/31 07:13:42;;;;;;;3.10;1.25;;;;;;;;;;3584551;40;20040;-59
2021/07/31 07:16:08;;;;;;;3.08;1.38;;;;;;;;;;3585481;40;20122;-61
2021/07/31 07:18:34;;;;;;;4.30;1.48;;;;;;;;;;3584820;40;20276;-59
2021/07/31 07:21:07;;;;;;;4.43;1.30;;;;;;;;;;3587133;40;20025;-58
2021/07/31 07:23:33;;;;;;;4.80;1.80;;;;;;;;;;3585844;40;20058;-59
2021/07/31 07:25:59;;;;;;;2.75;1.20;;;;;;;;;;3583402;40;20090;-59
2021/07/31 07:28:25;;;;;;;5.07;1.90;;;;;;;;;;3585582;40;20311;-59
2021/07/31 07:30:51;;;;;;;4.32;1.60;;;;;;;;;;3585237;40;20036;-59
2021/07/31 07:33:16;;;;;;;5.07;1.90;;;;;;;;;;3585594;40;20482;-58
2021/07/31 07:35:41;;;;;;;6.32;1.65;;;;;;;;;;3584006;40;20080;-59
2021/07/31 07:38:07;;;;;;;8.30;1.77;;;;;;;;;;3582543;40;20044;-59
2021/07/31 07:40:32;;;;;;;2.80;1.48;;;;;;;;;;3586200;40;20077;-59
2021/07/31 07:42:58;;;;;;;2.80;1.33;;;;;;;;;;3586061;40;20153;-58
2021/07/31 07:45:23;;;;;;;3.95;1.52;;;;;;;;;;3585578;40;20036;-59
2021/07/31 07:47:48;;;;;;;5.90;1.80;;;;;;;;;;3585704;40;20047;-60
2021/07/31 07:50:14;;;;;;;3.70;1.70;;;;;;;;;;3585710;40;20032;-58
2021/07/31 07:52:39;;;;;;;6.90;2.17;;;;;;;;;;3585177;40;20048;-60
2021/07/31 07:55:05;;;;;;;8.25;1.88;;;;;;;;;;3585294;40;20142;-59
2021/07/31 07:57:31;;;;;;;5.25;1.80;;;;;;;;;;3583874;40;20450;-59
2021/07/31 07:59:56;;;;;;;3.70;1.70;;;;;;;;;;3585484;40;20029;-59
2021/07/31 08:02:22;;;;;;;3.90;1.60;;;;;;;;;;3585206;40;20713;-59
2021/07/31 08:04:47;;;;;;;3.60;1.48;;;;;;;;;;3586405;40;20032;-59
2021/07/31 08:07:13;;;;;;;2.83;1.70;;;;;;;;;;3586283;40;20045;-59
2021/07/31 08:09:39;;;;;;;3.28;1.77;;;;;;;;;;3588127;40;20124;-58
2021/07/31 08:12:06;;;;;;;4.95;1.55;;;;;;;;;;3586533;40;20709;-59
2021/07/31 08:14:31;;;;;;;6.93;1.75;;;;;;;;;;3586913;40;20114;-58
2021/07/31 08:16:57;;;;;;;4.20;1.65;;;;;;;;;;3583389;40;20032;-58
2021/07/31 08:19:23;;;;;;;2.78;1.40;;;;;;;;;;3586200;40;20024;-58
2021/07/31 08:21:48;;;;;;;3.63;1.50;;;;;;;;;;3586249;40;20346;-58
2021/07/31 08:24:16;;;;;;;2.45;1.27;;;;;;;;;;3586815;40;20036;-58
2021/07/31 08:26:41;;;;;;;5.65;2.05;;;;;;;;;;3587661;40;20047;-58
2021/07/31 08:29:07;;;;;;;5.60;1.80;;;;;;;;;;3586472;40;20044;-58
2021/07/31 08:31:32;;;;;;;3.92;1.73;;;;;;;;;;3584855;40;20033;-58
2021/07/31 08:33:57;;;;;;;2.85;1.50;;;;;;;;;;3587787;40;20048;-58
2021/07/31 08:36:23;;;;;;;4.10;1.50;;;;;;;;;;3587350;40;20044;-59
2021/07/31 08:38:48;;;;;;;4.65;1.33;;;;;;;;;;3586740;40;20029;-60
2021/07/31 08:41:14;;;;;;;2.80;1.00;;;;;;;;;;3587420;40;20345;-58
2021/07/31 08:43:39;;;;;;;2.90;1.20;;;;;;;;;;3585968;40;20052;-59
2021/07/31 08:46:10;;;;;;;3.90;1.40;;;;;;;;;;3587519;40;20570;-59
2021/07/31 08:48:36;;;;;;;;;;;;;;;;;;3588577;40;20052;-59
2021/07/31 08:51:02;;;;;;;2.13;1.00;;;;;;;;;;3587191;40;20329;-59
2021/07/31 08:53:30;;;;;;;3.75;1.42;;;;;;;;;;3586430;40;20293;-59
2021/07/31 08:55:57;;;;;;;3.47;1.20;;;;;;;;;;3586612;40;20039;-62
2021/07/31 08:58:25;;;;;;;2.28;1.17;;;;;;;;;;3587722;40;20053;-59
2021/07/31 09:00:55;;;;;;;2.83;1.50;;;;;;;;;;3587705;40;20032;-59
2021/07/31 09:03:21;;;;;;;3.50;1.50;;;;;;;;;;3586427;40;20064;-59
2021/07/31 09:05:48;;;;;;;4.72;1.60;;;;;;;;;;3585257;40;20037;-59
2021/07/31 09:08:14;;;;;;;4.07;1.30;;;;;;;;;;3586411;40;20029;-59
2021/07/31 09:10:41;;;;;;;2.58;1.35;;;;;;;;;;3587271;40;20032;-59
2021/07/31 09:13:09;;;;;;;5.97;1.50;;;;;;;;;;3587466;40;20395;-59
2021/07/31 09:15:35;;;;;;;4.65;1.13;;;;;;;;;;3586814;40;20073;-60
2021/07/31 09:18:31;;;;;;;2.67;1.23;;;;;;;;;;3586028;40;20032;-60
2021/07/31 09:21:07;;;;;;;3.33;1.45;;;;;;;;;;3586286;40;20056;-57
2021/07/31 09:23:52;;;;;;;3.00;1.35;;;;;;;;;;3586484;40;20257;-57
2021/07/31 09:26:24;;;;;;;2.92;1.20;;;;;;;;;;3586942;40;20032;-60
2021/07/31 09:29:11;;;;;;;5.50;1.13;;;;;;;;;;3587465;40;20534;-60
2021/07/31 09:31:42;;;;;;;4.15;1.42;;;;;;;;;;3586728;40;20048;-60
2021/07/31 09:34:08;;;;;;;;;;;;;;;;;;3588120;40;20032;-59
2021/07/31 09:36:36;;;;;;;2.47;1.13;;;;;;;;;;3586675;40;19940;-60
2021/07/31 09:39:02;;;;;;;2.00;0.95;;;;;;;;;;3586210;40;20041;-59
2021/07/31 09:41:33;;;;;;;4.68;1.55;;;;;;;;;;3586894;40;20387;-58
2021/07/31 09:44:10;;;;;;;2.60;1.38;;;;;;;;;;3585254;40;20041;-59
2021/07/31 09:46:47;;;;;;;3.25;1.38;;;;;;;;;;3584406;40;20063;-59
2021/07/31 09:49:17;;;;;;;6.50;1.33;;;;;;;;;;3584365;40;20067;-58
2021/07/31 09:51:44;;;;;;;2.53;1.23;;;;;;;;;;3586168;40;20292;-59
2021/07/31 09:54:14;;;;;;;2.85;1.40;;;;;;;;;;3585615;40;20032;-59
2021/07/31 09:56:47;;;;;;;2.83;1.30;;;;;;;;;;3586467;40;20055;-59
2021/07/31 09:59:14;;;;;;;2.83;1.30;;;;;;;;;;3587237;40;20039;-59
2021/07/31 10:02:13;;;;;;;4.45;1.48;;;;;;;;;;3585958;40;20037;-60
2021/07/31 10:04:39;;;;;;;3.30;1.48;;;;;;;;;;3579990;40;20110;-59
2021/07/31 10:07:04;;;;;;;3.58;1.35;;;;;;;;;;3586320;40;20048;-59
2021/07/31 10:09:32;;;;;;;3.70;1.42;;;;;;;;;;3586045;40;20387;-59
2021/07/31 10:11:58;;;;;;;2.63;1.27;;;;;;;;;;3585927;40;20068;-59
2021/07/31 10:14:24;;;;;;;3.08;1.40;;;;;;;;;;3586033;40;20133;-60
2021/07/31 10:16:50;;;;;;;2.15;1.40;;;;;;;;;;3587092;40;20090;-60
2021/07/31 10:19:16;;;;;;;2.38;1.20;;;;;;;;;;3586950;40;20056;-61
2021/07/31 10:21:41;;;;;;;2.20;1.30;;;;;;;;;;3585665;40;20029;-59
2021/07/31 10:24:08;;;;;;;3.00;1.20;;;;;;;;;;3587282;40;20098;-59
2021/07/31 10:26:35;;;;;;;3.83;1.77;;;;;;;;;;3587271;40;20063;-59
2021/07/31 10:29:25;;;;;;;5.13;2.00;;;;;;;;;;3586643;40;20048;-59
2021/07/31 10:31:52;;;;;;;2.60;1.25;;;;;;;;;;3585831;40;20035;-59
2021/07/31 10:34:52;;;;;;;3.25;1.60;;;;;;;;;;3581767;40;20506;-59
2021/07/31 10:37:29;;;;;;;3.03;1.50;;;;;;;;;;3580581;40;20076;-58
2021/07/31 10:39:56;;;;;;;2.58;1.40;;;;;;;;;;3585895;40;20043;-58
2021/07/31 10:42:22;;;;;;;2.53;1.50;;;;;;;;;;3586443;40;20388;-59
2021/07/31 10:45:15;;;;;;;3.22;1.67;;;;;;;;;;3586497;40;20090;-59
2021/07/31 10:47:45;;;;;;;3.08;1.30;;;;;;;;;;3586402;40;20092;-59
2021/07/31 10:50:23;;;;;;;2.97;1.60;;;;;;;;;;3586090;40;20051;-59
2021/07/31 10:52:50;;;;;;;2.97;1.38;;;;;;;;;;3586246;40;20039;-59
2021/07/31 10:55:15;;;;;;;3.95;1.73;;;;;;;;;;3585548;40;20074;-59
2021/07/31 10:57:53;;;;;;;4.93;1.40;;;;;;;;;;3585580;40;20126;-59
2021/07/31 11:00:27;;;;;;;3.00;1.70;;;;;;;;;;3586430;40;20043;-58
2021/07/31 11:02:54;;;;;;;4.43;1.90;;;;;;;;;;3585421;40;20260;-59
2021/07/31 11:05:20;;;;;;;3.30;1.73;;;;;;;;;;3586130;40;20321;-59
2021/07/31 11:07:58;;;;;;;4.70;1.70;;;;;;;;;;3585926;40;20055;-60
2021/07/31 11:11:14;;;;;;;5.70;1.92;;;;;;;;;;3585874;40;20122;-58
2021/07/31 11:13:39;;;;;;;3.67;1.80;;;;;;;;;;3564888;40;20045;-58
2021/07/31 11:16:07;;;;;;;2.88;1.75;;;;;;;;;;3564936;40;20083;-58
2021/07/31 11:18:35;;;;;;;4.70;2.10;;;;;;;;;;3576402;40;20044;-60
2021/07/31 11:21:12;;;;;;;4.20;2.20;;;;;;;;;;3581249;40;20043;-58
2021/07/31 11:23:47;;;;;;;4.55;2.33;;;;;;;;;;3585380;40;20129;-58
2021/07/31 11:26:32;;;;;;;4.28;1.75;;;;;;;;;;3585181;40;20033;-58
2021/07/31 11:28:59;;;;;;;3.65;1.70;;;;;;;;;;3584184;40;20040;-59
2021/07/31 11:31:24;;;;;;;2.70;1.58;;;;;;;;;;3584789;40;20052;-59
2021/07/31 11:33:58;;;;;;;3.58;1.65;;;;;;;;;;3584024;40;20056;-59
2021/07/31 11:36:23;;;;;;;5.05;2.03;;;;;;;;;;3582630;40;20048;-60
2021/07/31 11:38:52;;;;;;;3.40;2.03;;;;;;;;;;3585892;40;20368;-59
2021/07/31 11:41:18;;;;;;;5.15;1.60;;;;;;;;;;3585657;40;20036;-58
2021/07/31 11:43:54;;;;;;;3.30;1.90;;;;;;;;;;3584872;40;20364;-60
2021/07/31 11:46:27;;;;;;;3.08;1.80;;;;;;;;;;3586007;40;20077;-61
2021/07/31 11:48:55;;;;;;;3.13;1.70;;;;;;;;;;3585885;40;20053;-58
2021/07/31 11:51:20;;;;;;;3.33;1.80;;;;;;;;;;3586096;40;20028;-58
2021/07/31 11:53:46;;;;;;;3.28;1.77;;;;;;;;;;3585114;40;20134;-59
2021/07/31 11:56:18;;;;;;;5.45;1.88;;;;;;;;;;3584212;40;20123;-59
2021/07/31 11:58:44;;;;;;;3.10;1.60;;;;;;;;;;3584324;40;20048;-59
2021/07/31 12:01:11;;;;;;;2.47;1.40;;;;;;;;;;3585478;40;20044;-59
2021/07/31 12:03:47;;;;;;;3.72;1.88;;;;;;;;;;3585994;40;20044;-59
2021/07/31 12:06:36;;;;;;;4.40;1.40;;;;;;;;;;3584927;40;20076;-58
2021/07/31 12:09:06;;;;;;;6.43;1.65;;;;;;;;;;3583675;40;20129;-60
2021/07/31 12:11:42;;;;;;;3.50;1.77;;;;;;;;;;3584694;40;20097;-60
2021/07/31 12:14:36;;;;;;;3.28;1.70;;;;;;;;;;3585070;40;20045;-60
2021/07/31 12:17:23;;;;;;;3.72;1.83;;;;;;;;;;3583013;40;20041;-59
2021/07/31 12:19:56;;;;;;;2.92;1.58;;;;;;;;;;3584889;40;20379;-59
2021/07/31 12:22:23;;;;;;;3.25;1.60;;;;;;;;;;3584114;40;20056;-59
2021/07/31 12:25:14;;;;;;;3.13;1.88;;;;;;;;;;3586005;40;20036;-59
2021/07/31 12:27:58;;;;;;;3.25;1.48;;;;;;;;;;3584779;40;20037;-59
2021/07/31 12:30:38;;;;;;;4.05;1.55;;;;;;;;;;3585239;40;20430;-59
2021/07/31 12:33:06;;;;;;;3.17;1.73;;;;;;;;;;3583757;40;20053;-59
2021/07/31 12:35:39;;;;;;;3.42;1.63;;;;;;;;;;3583269;40;20037;-59
2021/07/31 12:38:26;;;;;;;3.05;1.73;;;;;;;;;;3585383;40;20438;-59
2021/07/31 12:40:52;;;;;;;8.10;2.40;;;;;;;;;;3584849;40;20044;-59
2021/07/31 12:43:18;;;;;;;3.13;1.83;;;;;;;;;;3584302;40;20058;-59
2021/07/31 12:45:45;;;;;;;4.10;2.03;;;;;;;;;;3584359;40;20052;-59
2021/07/31 12:48:11;;;;;;;3.22;1.90;;;;;;;;;;3583874;40;20058;-59
2021/07/31 12:50:38;;;;;;;3.40;1.75;;;;;;;;;;3584141;40;20039;-59
2021/07/31 12:53:04;;;;;;;4.85;1.40;;;;;;;;;;3584392;40;20140;-60
2021/07/31 12:55:30;;;;;;;3.30;1.75;;;;;;;;;;3584807;40;20044;-60
2021/07/31 12:57:56;;;;;;;3.13;1.70;;;;;;;;;;3587585;40;20040;-60
2021/07/31 13:00:22;;;;;;;3.92;1.83;;;;;;;;;;3587678;40;20029;-60
2021/07/31 13:02:48;;;;;;;3.22;1.80;;;;;;;;;;3587699;40;20052;-60
2021/07/31 13:05:14;;;;;;;6.38;2.03;;;;;;;;;;3587571;40;20033;-60
2021/07/31 13:07:40;;;;;;;3.88;1.90;;;;;;;;;;3587533;40;20049;-59
2021/07/31 13:10:06;;;;;;;3.83;1.80;;;;;;;;;;3587528;40;20025;-60
2021/07/31 13:12:32;;;;;;;3.22;1.48;;;;;;;;;;3586992;40;20044;-60
2021/07/31 13:14:58;;;;;;;3.45;1.70;;;;;;;;;;3586956;40;20130;-59
2021/07/31 13:17:23;;;;;;;3.22;1.50;;;;;;;;;;3585342;40;20039;-58
2021/07/31 13:19:49;;;;;;;3.13;1.80;;;;;;;;;;3584832;40;20037;-59
2021/07/31 13:22:14;;;;;;;2.95;1.67;;;;;;;;;;3587272;40;20040;-59
2021/07/31 13:24:40;;;;;;;4.00;1.83;;;;;;;;;;3587010;40;20377;-59
2021/07/31 13:27:06;;;;;;;4.53;2.10;;;;;;;;;;3587425;40;20052;-59
2021/07/31 13:29:32;;;;;;;3.17;1.70;;;;;;;;;;3586145;40;20036;-59
2021/07/31 13:31:59;;;;;;;3.67;1.80;;;;;;;;;;3587044;40;20028;-59
2021/07/31 13:34:24;;;;;;;4.47;2.00;;;;;;;;;;3583912;40;20029;-59
2021/07/31 13:36:51;;;;;;;3.08;1.80;;;;;;;;;;3586730;40;20040;-60
2021/07/31 13:39:20;;;;;;;2.42;1.52;;;;;;;;;;3584183;40;20085;-59
2021/07/31 13:41:46;;;;;;;3.65;1.90;;;;;;;;;;3587629;40;20033;-59
2021/07/31 13:44:16;;;;;;;2.55;1.60;;;;;;;;;;3586515;40;20408;-59
2021/07/31 13:46:43;;;;;;;3.00;1.80;;;;;;;;;;3586721;40;20040;-60
2021/07/31 13:49:09;;;;;;;2.90;1.70;;;;;;;;;;3587145;40;20285;-59
2021/07/31 13:51:34;;;;;;;3.08;1.45;;;;;;;;;;3587090;40;20033;-59
2021/07/31 13:53:59;;;;;;;2.88;1.45;;;;;;;;;;3586308;40;20129;-59
2021/07/31 13:56:25;;;;;;;7.72;1.90;;;;;;;;;;3584905;40;20059;-59
2021/07/31 13:58:51;;;;;;;2.75;1.55;;;;;;;;;;3586374;40;20040;-59
2021/07/31 14:01:21;;;;;;;2.95;1.60;;;;;;;;;;3587210;40;20028;-60
2021/07/31 14:03:46;;;;;;;2.45;1.52;;;;;;;;;;3586472;40;20033;-59
2021/07/31 14:06:12;;;;;;;3.20;1.77;;;;;;;;;;3585530;40;20539;-59
2021/07/31 14:08:37;;;;;;;2.95;1.45;;;;;;;;;;3584511;40;20134;-59
2021/07/31 14:11:03;;;;;;;7.43;1.88;;;;;;;;;;3582172;40;20332;-59
2021/07/31 14:13:28;;;;;;;3.50;2.13;;;;;;;;;;3584132;40;20032;-59
2021/07/31 14:15:53;;;;;;;3.13;1.60;;;;;;;;;;3584720;40;20052;-59
2021/07/31 14:18:19;;;;;;;3.50;1.42;;;;;;;;;;3584953;40;20033;-59
2021/07/31 14:20:44;;;;;;;3.70;1.83;;;;;;;;;;3584950;40;20069;-59
2021/07/31 14:23:12;;;;;;;2.78;1.45;;;;;;;;;;3585823;40;20094;-59
2021/07/31 14:25:43;;;;;;;4.38;1.58;;;;;;;;;;3585593;40;20032;-59
2021/07/31 14:28:09;;;;;;;3.17;1.77;;;;;;;;;;3586474;40;20040;-59
2021/07/31 14:30:35;;;;;;;4.57;1.75;;;;;;;;;;3585732;40;20079;-59
2021/07/31 14:33:01;;;;;;;2.75;1.50;;;;;;;;;;3585425;40;20105;-59
2021/07/31 14:35:26;;;;;;;2.70;1.65;;;;;;;;;;3586101;40;20047;-59
2021/07/31 14:37:52;;;;;;;2.63;1.60;;;;;;;;;;3583620;40;20040;-59
2021/07/31 14:40:17;;;;;;;3.08;1.48;;;;;;;;;;3582045;40;20040;-59
2021/07/31 14:42:43;;;;;;;5.32;1.67;;;;;;;;;;3584651;40;20024;-59
2021/07/31 14:45:09;;;;;;;3.13;1.83;;;;;;;;;;3581808;40;20040;-58